^^
Station Historical Data
Daily Summary for February 12, 2017 Units:  Both    English   Metric
« Previous Day
Next Day »
Daily Weekly Monthly Yearly Custom
  High: Low: Average:
Temperature: 84.9 °F /  29.4 °C 61.3 °F /  16.3 °C 70.7 °F /  21.5 °C
Dew Point: 64.0 °F /  17.8 °C 58.5 °F /  14.7 °C 61 °F /  16.1 °C
Humidity: 93% 42% 73%
Wind Speed: 8.9mph /  14.3km/h - 1.1mph /  1.8km/h
Wind Gust: 13.0mph /  20.9km/h - -
Wind- - SSE
Pressure: 29.81 in /  1009.4 hPa 29.68 in /  1005 hPa -
Precipitation: 0.00 in /  0 mm    
Historical Graphs
 
 
Tabular Data for February 12, 2017
Time Temperature Dew Point Pressure Wind Wind Speed Wind Gust Humidity Rainfall Rate (Hourly) solar Conditions
00:05 64.0 °F /  17.8 °C 60.1 °F /  15.6 °C 29.77in /  1008hPa Calm   1.0mph /  1.6km/h 87% 0.00in /  0mm 0.0 W/m2
00:11 64.0 °F /  17.8 °C 60.4 °F /  15.8 °C 29.78in /  1008.4hPa Calm     88% 0.00in /  0mm 0.0 W/m2
00:17 63.9 °F /  17.7 °C 60.3 °F /  15.7 °C 29.78in /  1008.4hPa Calm   1.0mph /  1.6km/h 88% 0.00in /  0mm 0.0 W/m2
00:23 63.7 °F /  17.6 °C 60.4 °F /  15.8 °C 29.78in /  1008.4hPa East 0.9mph /  1.4km/h 1.0mph /  1.6km/h 89% 0.00in /  0mm 0.0 W/m2
00:29 63.7 °F /  17.6 °C 60.6 °F /  15.9 °C 29.78in /  1008.4hPa NNE 2.0mph /  3.2km/h 2.0mph /  3.2km/h 90% 0.00in /  0mm 0.0 W/m2
00:35 63.7 °F /  17.6 °C 60.6 °F /  15.9 °C 29.78in /  1008.4hPa Calm     90% 0.00in /  0mm 0.0 W/m2
00:41 63.5 °F /  17.5 °C 60.4 °F /  15.8 °C 29.78in /  1008.4hPa Calm     90% 0.00in /  0mm 0.0 W/m2
00:47 63.3 °F /  17.4 °C 60.3 °F /  15.7 °C 29.78in /  1008.4hPa Calm     90% 0.00in /  0mm 0.0 W/m2
00:53 63.1 °F /  17.3 °C 60.1 °F /  15.6 °C 29.78in /  1008.4hPa Calm     90% 0.00in /  0mm 0.0 W/m2
00:59 63.1 °F /  17.3 °C 60.4 °F /  15.8 °C 29.78in /  1008.4hPa Calm     91% 0.00in /  0mm 0.0 W/m2
01:05 63.0 °F /  17.2 °C 60.3 °F /  15.7 °C 29.77in /  1008hPa Calm     91% 0.00in /  0mm 0.0 W/m2
01:11 63.0 °F /  17.2 °C 60.3 °F /  15.7 °C 29.77in /  1008hPa Calm     91% 0.00in /  0mm 0.0 W/m2
01:17 63.0 °F /  17.2 °C 60.3 °F /  15.7 °C 29.77in /  1008hPa Calm     91% 0.00in /  0mm 0.0 W/m2
01:23 62.8 °F /  17.1 °C 60.1 °F /  15.6 °C 29.77in /  1008hPa Calm   1.0mph /  1.6km/h 91% 0.00in /  0mm 0.0 W/m2
01:29 62.8 °F /  17.1 °C 60.1 °F /  15.6 °C 29.76in /  1007.7hPa Calm     91% 0.00in /  0mm 0.0 W/m2
01:35 62.4 °F /  16.9 °C 59.7 °F /  15.4 °C 29.76in /  1007.7hPa Calm     91% 0.00in /  0mm 0.0 W/m2
01:41 62.4 °F /  16.9 °C 59.7 °F /  15.4 °C 29.75in /  1007.3hPa Calm     91% 0.00in /  0mm 0.0 W/m2
01:47 62.4 °F /  16.9 °C 59.7 °F /  15.4 °C 29.75in /  1007.3hPa Calm     91% 0.00in /  0mm 0.0 W/m2
01:53 62.2 °F /  16.8 °C 59.5 °F /  15.3 °C 29.75in /  1007.3hPa Calm     91% 0.00in /  0mm 0.0 W/m2
01:59 62.2 °F /  16.8 °C 59.9 °F /  15.5 °C 29.76in /  1007.7hPa ESE 0.9mph /  1.4km/h 1.0mph /  1.6km/h 92% 0.00in /  0mm 0.0 W/m2
02:05 62.2 °F /  16.8 °C 59.9 °F /  15.5 °C 29.75in /  1007.3hPa Calm     92% 0.00in /  0mm 0.0 W/m2
02:11 62.2 °F /  16.8 °C 59.9 °F /  15.5 °C 29.75in /  1007.3hPa Calm     92% 0.00in /  0mm 0.0 W/m2
02:17 62.1 °F /  16.7 °C 59.7 °F /  15.4 °C 29.75in /  1007.3hPa Calm     92% 0.00in /  0mm 0.0 W/m2
02:23 62.1 °F /  16.7 °C 60.1 °F /  15.6 °C 29.74in /  1007hPa Calm   1.0mph /  1.6km/h 93% 0.00in /  0mm 0.0 W/m2
02:29 62.2 °F /  16.8 °C 60.3 °F /  15.7 °C 29.75in /  1007.3hPa Calm     93% 0.00in /  0mm 0.0 W/m2
02:35 62.2 °F /  16.8 °C 60.3 °F /  15.7 °C 29.74in /  1007hPa Calm     93% 0.00in /  0mm 0.0 W/m2
02:41 62.2 °F /  16.8 °C 60.3 °F /  15.7 °C 29.74in /  1007hPa Calm     93% 0.00in /  0mm 0.0 W/m2
02:47 62.2 °F /  16.8 °C 60.3 °F /  15.7 °C 29.74in /  1007hPa Calm     93% 0.00in /  0mm 0.0 W/m2
02:53 62.2 °F /  16.8 °C 60.3 °F /  15.7 °C 29.73in /  1006.7hPa Calm     93% 0.00in /  0mm 0.0 W/m2
02:59 62.2 °F /  16.8 °C 60.3 °F /  15.7 °C 29.73in /  1006.7hPa Calm     93% 0.00in /  0mm 0.0 W/m2
03:05 62.2 °F /  16.8 °C 60.3 °F /  15.7 °C 29.73in /  1006.7hPa Calm     93% 0.00in /  0mm 0.0 W/m2
03:11 62.2 °F /  16.8 °C 60.3 °F /  15.7 °C 29.73in /  1006.7hPa Calm     93% 0.00in /  0mm 0.0 W/m2
03:17 62.2 °F /  16.8 °C 60.3 °F /  15.7 °C 29.72in /  1006.3hPa Calm     93% 0.00in /  0mm 0.0 W/m2
03:23 62.2 °F /  16.8 °C 60.3 °F /  15.7 °C 29.72in /  1006.3hPa Calm     93% 0.00in /  0mm 0.0 W/m2
03:29 62.1 °F /  16.7 °C 60.1 °F /  15.6 °C 29.72in /  1006.3hPa Calm     93% 0.00in /  0mm 0.0 W/m2
03:35 62.1 °F /  16.7 °C 60.1 °F /  15.6 °C 29.72in /  1006.3hPa Calm     93% 0.00in /  0mm 0.0 W/m2
03:41 62.1 °F /  16.7 °C 60.1 °F /  15.6 °C 29.72in /  1006.3hPa Calm     93% 0.00in /  0mm 0.0 W/m2
03:47 62.1 °F /  16.7 °C 60.1 °F /  15.6 °C 29.72in /  1006.3hPa NE 0.9mph /  1.4km/h 2.0mph /  3.2km/h 93% 0.00in /  0mm 0.0 W/m2
03:53 61.9 °F /  16.6 °C 59.9 °F /  15.5 °C 29.72in /  1006.3hPa Calm   1.0mph /  1.6km/h 93% 0.00in /  0mm 0.0 W/m2
03:59 61.9 °F /  16.6 °C 59.9 °F /  15.5 °C 29.72in /  1006.3hPa Calm   1.0mph /  1.6km/h 93% 0.00in /  0mm 0.0 W/m2
04:05 61.9 °F /  16.6 °C 59.9 °F /  15.5 °C 29.72in /  1006.3hPa Calm   4.0mph /  6.4km/h 93% 0.00in /  0mm 0.0 W/m2
04:11 61.9 °F /  16.6 °C 59.9 °F /  15.5 °C 29.72in /  1006.3hPa Calm   2.0mph /  3.2km/h 93% 0.00in /  0mm 0.0 W/m2
04:17 61.9 °F /  16.6 °C 59.9 °F /  15.5 °C 29.72in /  1006.3hPa Calm   1.0mph /  1.6km/h 93% 0.00in /  0mm 0.0 W/m2
04:23 61.9 °F /  16.6 °C 59.9 °F /  15.5 °C 29.72in /  1006.3hPa Calm   1.0mph /  1.6km/h 93% 0.00in /  0mm 0.0 W/m2
04:29 61.7 °F /  16.5 °C 59.7 °F /  15.4 °C 29.72in /  1006.3hPa Calm     93% 0.00in /  0mm 0.0 W/m2
04:35 61.7 °F /  16.5 °C 59.4 °F /  15.2 °C 29.72in /  1006.3hPa East 0.9mph /  1.4km/h 2.0mph /  3.2km/h 92% 0.00in /  0mm 0.0 W/m2
04:41 61.9 °F /  16.6 °C 59.5 °F /  15.3 °C 29.72in /  1006.3hPa Calm   3.0mph /  4.8km/h 92% 0.00in /  0mm 0.0 W/m2
04:47 61.7 °F /  16.5 °C 59.4 °F /  15.2 °C 29.72in /  1006.3hPa Calm   1.0mph /  1.6km/h 92% 0.00in /  0mm 0.0 W/m2
04:53 61.7 °F /  16.5 °C 59.4 °F /  15.2 °C 29.72in /  1006.3hPa East 0.9mph /  1.4km/h 2.0mph /  3.2km/h 92% 0.00in /  0mm 0.0 W/m2
04:59 61.7 °F /  16.5 °C 59.4 °F /  15.2 °C 29.72in /  1006.3hPa Calm   2.0mph /  3.2km/h 92% 0.00in /  0mm 0.0 W/m2
05:05 61.5 °F /  16.4 °C 58.8 °F /  14.9 °C 29.72in /  1006.3hPa Calm   1.0mph /  1.6km/h 91% 0.00in /  0mm 0.0 W/m2
05:11 61.3 °F /  16.3 °C 58.5 °F /  14.7 °C 29.72in /  1006.3hPa Calm     90% 0.00in /  0mm 0.0 W/m2
05:17 61.5 °F /  16.4 °C 58.6 °F /  14.8 °C 29.72in /  1006.3hPa Calm     90% 0.00in /  0mm 0.0 W/m2
05:23 61.5 °F /  16.4 °C 58.6 °F /  14.8 °C 29.72in /  1006.3hPa Calm     90% 0.00in /  0mm 0.0 W/m2
05:29 61.5 °F /  16.4 °C 58.6 °F /  14.8 °C 29.72in /  1006.3hPa Calm     90% 0.00in /  0mm 0.0 W/m2
05:35 61.5 °F /  16.4 °C 58.6 °F /  14.8 °C 29.72in /  1006.3hPa Calm     90% 0.00in /  0mm 0.0 W/m2
05:41 61.5 °F /  16.4 °C 58.6 °F /  14.8 °C 29.72in /  1006.3hPa Calm     90% 0.00in /  0mm 0.0 W/m2
05:47 61.5 °F /  16.4 °C 58.6 °F /  14.8 °C 29.73in /  1006.7hPa Calm     90% 0.00in /  0mm 0.0 W/m2
05:53 61.5 °F /  16.4 °C 58.8 °F /  14.9 °C 29.73in /  1006.7hPa Calm     91% 0.00in /  0mm 0.0 W/m2
05:59 61.7 °F /  16.5 °C 59.0 °F /  15 °C 29.73in /  1006.7hPa Calm     91% 0.00in /  0mm 0.0 W/m2
06:05 61.7 °F /  16.5 °C 59.0 °F /  15 °C 29.73in /  1006.7hPa Calm     91% 0.00in /  0mm 0.0 W/m2
06:11 61.9 °F /  16.6 °C 59.2 °F /  15.1 °C 29.74in /  1007hPa Calm     91% 0.00in /  0mm 0.0 W/m2
06:17 61.9 °F /  16.6 °C 59.2 °F /  15.1 °C 29.74in /  1007hPa Calm     91% 0.00in /  0mm 0.0 W/m2
06:23 61.9 °F /  16.6 °C 59.2 °F /  15.1 °C 29.74in /  1007hPa Calm     91% 0.00in /  0mm 0.0 W/m2
06:30 62.1 °F /  16.7 °C 59.4 °F /  15.2 °C 29.74in /  1007hPa Calm     91% 0.00in /  0mm 0.0 W/m2
06:35 62.2 °F /  16.8 °C 59.2 °F /  15.1 °C 29.75in /  1007.3hPa Calm   2.0mph /  3.2km/h 90% 0.00in /  0mm 0.0 W/m2
06:41 62.4 °F /  16.9 °C 59.7 °F /  15.4 °C 29.75in /  1007.3hPa East 0.9mph /  1.4km/h 2.0mph /  3.2km/h 91% 0.00in /  0mm 0.0 W/m2
06:47 62.4 °F /  16.9 °C 59.4 °F /  15.2 °C 29.75in /  1007.3hPa Calm     90% 0.00in /  0mm 0.0 W/m2
06:53 62.4 °F /  16.9 °C 59.4 °F /  15.2 °C 29.76in /  1007.7hPa Calm     90% 0.00in /  0mm 7.0 W/m2
06:59 62.6 °F /  17 °C 59.5 °F /  15.3 °C 29.76in /  1007.7hPa Calm     90% 0.00in /  0mm 14.0 W/m2
07:05 62.8 °F /  17.1 °C 59.7 °F /  15.4 °C 29.76in /  1007.7hPa NE 0.9mph /  1.4km/h 2.0mph /  3.2km/h 90% 0.00in /  0mm 18.0 W/m2
07:11 62.8 °F /  17.1 °C 59.7 °F /  15.4 °C 29.77in /  1008hPa Calm     90% 0.00in /  0mm 25.0 W/m2
07:17 63.0 °F /  17.2 °C 59.7 °F /  15.4 °C 29.77in /  1008hPa Calm     89% 0.00in /  0mm 30.0 W/m2
07:23 63.1 °F /  17.3 °C 60.1 °F /  15.6 °C 29.77in /  1008hPa Calm     90% 0.00in /  0mm 37.0 W/m2
07:29 63.1 °F /  17.3 °C 59.9 °F /  15.5 °C 29.78in /  1008.4hPa Calm     89% 0.00in /  0mm 44.0 W/m2
07:35 63.3 °F /  17.4 °C 60.1 °F /  15.6 °C 29.78in /  1008.4hPa Calm     89% 0.00in /  0mm 51.0 W/m2
07:41 63.5 °F /  17.5 °C 59.9 °F /  15.5 °C 29.78in /  1008.4hPa Calm     88% 0.00in /  0mm 58.0 W/m2
07:47 63.7 °F /  17.6 °C 60.4 °F /  15.8 °C 29.78in /  1008.4hPa Calm     89% 0.00in /  0mm 67.0 W/m2
07:53 63.9 °F /  17.7 °C 60.3 °F /  15.7 °C 29.78in /  1008.4hPa Calm     88% 0.00in /  0mm 72.0 W/m2
07:59 64.2 °F /  17.9 °C 61.0 °F /  16.1 °C 29.78in /  1008.4hPa Calm     89% 0.00in /  0mm 79.0 W/m2
08:05 64.4 °F /  18 °C 61.2 °F /  16.2 °C 29.78in /  1008.4hPa Calm     89% 0.00in /  0mm 84.0 W/m2
08:11 64.6 °F /  18.1 °C 61.0 °F /  16.1 °C 29.79in /  1008.7hPa Calm     88% 0.00in /  0mm 91.0 W/m2
08:17 64.8 °F /  18.2 °C 61.2 °F /  16.2 °C 29.79in /  1008.7hPa Calm     88% 0.00in /  0mm 97.0 W/m2
08:23 65.1 °F /  18.4 °C 60.4 °F /  15.8 °C 29.79in /  1008.7hPa Calm     85% 0.00in /  0mm 102.0 W/m2
08:29 65.5 °F /  18.6 °C 60.8 °F /  16 °C 29.79in /  1008.7hPa Calm     85% 0.00in /  0mm 102.0 W/m2
08:35 65.7 °F /  18.7 °C 61.0 °F /  16.1 °C 29.79in /  1008.7hPa Calm     85% 0.00in /  0mm 114.0 W/m2
08:41 65.8 °F /  18.8 °C 60.6 °F /  15.9 °C 29.79in /  1008.7hPa Calm     83% 0.00in /  0mm 116.0 W/m2
08:47 66.0 °F /  18.9 °C 60.4 °F /  15.8 °C 29.79in /  1008.7hPa Calm     82% 0.00in /  0mm 127.0 W/m2
08:54 66.4 °F /  19.1 °C 61.3 °F /  16.3 °C 29.79in /  1008.7hPa Calm     84% 0.00in /  0mm 134.0 W/m2
09:00 66.6 °F /  19.2 °C 61.2 °F /  16.2 °C 29.80in /  1009hPa Calm     83% 0.00in /  0mm 142.0 W/m2
09:06 66.9 °F /  19.4 °C 61.2 °F /  16.2 °C 29.80in /  1009hPa Calm     82% 0.00in /  0mm 151.0 W/m2
09:12 67.1 °F /  19.5 °C 61.7 °F /  16.5 °C 29.80in /  1009hPa Calm   1.0mph /  1.6km/h 83% 0.00in /  0mm 165.0 W/m2
09:18 67.5 °F /  19.7 °C 61.7 °F /  16.5 °C 29.80in /  1009hPa Calm     82% 0.00in /  0mm 188.0 W/m2
09:24 67.8 °F /  19.9 °C 61.3 °F /  16.3 °C 29.80in /  1009hPa Calm     80% 0.00in /  0mm 207.0 W/m2
09:30 68.2 °F /  20.1 °C 61.7 °F /  16.5 °C 29.81in /  1009.4hPa Calm     80% 0.00in /  0mm 227.0 W/m2
09:36 68.7 °F /  20.4 °C 61.2 °F /  16.2 °C 29.80in /  1009hPa Calm   1.0mph /  1.6km/h 77% 0.00in /  0mm 251.0 W/m2
09:42 69.3 °F /  20.7 °C 61.7 °F /  16.5 °C 29.81in /  1009.4hPa Calm     77% 0.00in /  0mm 279.0 W/m2
09:48 69.8 °F /  21 °C 61.5 °F /  16.4 °C 29.80in /  1009hPa Calm   1.0mph /  1.6km/h 75% 0.00in /  0mm 327.0 W/m2
09:54 70.3 °F /  21.3 °C 61.7 °F /  16.5 °C 29.81in /  1009.4hPa Calm   2.0mph /  3.2km/h 74% 0.00in /  0mm 353.0 W/m2
10:00 71.1 °F /  21.7 °C 61.5 °F /  16.4 °C 29.81in /  1009.4hPa NNW 2.0mph /  3.2km/h 3.0mph /  4.8km/h 72% 0.00in /  0mm 401.0 W/m2
10:06 71.8 °F /  22.1 °C 61.5 °F /  16.4 °C 29.80in /  1009hPa Calm   1.0mph /  1.6km/h 70% 0.00in /  0mm 434.0 W/m2
10:12 72.1 °F /  22.3 °C 61.3 °F /  16.3 °C 29.80in /  1009hPa West 0.9mph /  1.4km/h 3.0mph /  4.8km/h 69% 0.00in /  0mm 468.0 W/m2
10:18 72.9 °F /  22.7 °C 60.8 °F /  16 °C 29.81in /  1009.4hPa NNW 2.0mph /  3.2km/h 3.0mph /  4.8km/h 66% 0.00in /  0mm 494.0 W/m2
10:24 73.4 °F /  23 °C 62.2 °F /  16.8 °C 29.81in /  1009.4hPa NW 2.0mph /  3.2km/h 2.0mph /  3.2km/h 68% 0.00in /  0mm 490.0 W/m2
10:30 74.1 °F /  23.4 °C 62.4 °F /  16.9 °C 29.80in /  1009hPa Calm   1.0mph /  1.6km/h 67% 0.00in /  0mm 575.0 W/m2
10:36 74.8 °F /  23.8 °C 61.3 °F /  16.3 °C 29.81in /  1009.4hPa North 2.9mph /  4.7km/h 3.0mph /  4.8km/h 63% 0.00in /  0mm 536.0 W/m2
10:42 75.4 °F /  24.1 °C 61.5 °F /  16.4 °C 29.81in /  1009.4hPa NNE 2.9mph /  4.7km/h 3.0mph /  4.8km/h 62% 0.00in /  0mm 561.0 W/m2
10:48 75.9 °F /  24.4 °C 62.4 °F /  16.9 °C 29.80in /  1009hPa Calm   3.0mph /  4.8km/h 63% 0.00in /  0mm 522.0 W/m2
10:55 76.5 °F /  24.7 °C 62.4 °F /  16.9 °C 29.81in /  1009.4hPa Calm   4.0mph /  6.4km/h 62% 0.00in /  0mm 543.0 W/m2
11:01 76.8 °F /  24.9 °C 61.3 °F /  16.3 °C 29.81in /  1009.4hPa Calm   4.0mph /  6.4km/h 59% 0.00in /  0mm 531.0 W/m2
11:07 77.2 °F /  25.1 °C 62.2 °F /  16.8 °C 29.80in /  1009hPa WSW 2.0mph /  3.2km/h 2.0mph /  3.2km/h 60% 0.00in /  0mm 564.0 W/m2
11:13 77.4 °F /  25.2 °C 61.3 °F /  16.3 °C 29.80in /  1009hPa NNW 4.0mph /  6.4km/h 5.0mph /  8km/h 58% 0.00in /  0mm 566.0 W/m2
11:19 77.5 °F /  25.3 °C 61.5 °F /  16.4 °C 29.80in /  1009hPa Calm   3.0mph /  4.8km/h 58% 0.00in /  0mm 657.0 W/m2
11:25 78.4 °F /  25.8 °C 61.5 °F /  16.4 °C 29.80in /  1009hPa North 2.0mph /  3.2km/h 3.0mph /  4.8km/h 56% 0.00in /  0mm 1433.0 W/m2
11:31 79.2 °F /  26.2 °C 61.2 °F /  16.2 °C 29.80in /  1009hPa NNW 2.0mph /  3.2km/h 4.0mph /  6.4km/h 54% 0.00in /  0mm 1114.0 W/m2
11:37 80.1 °F /  26.7 °C 62.4 °F /  16.9 °C 29.80in /  1009hPa NNE 2.0mph /  3.2km/h 4.0mph /  6.4km/h 55% 0.00in /  0mm 1248.0 W/m2
11:43 81.0 °F /  27.2 °C 62.2 °F /  16.8 °C 29.80in /  1009hPa SW 0.9mph /  1.4km/h 4.0mph /  6.4km/h 53% 0.00in /  0mm 1250.0 W/m2
11:49 81.3 °F /  27.4 °C 61.0 °F /  16.1 °C 29.80in /  1009hPa NNE 2.9mph /  4.7km/h 6.0mph /  9.7km/h 50% 0.00in /  0mm 1030.0 W/m2
11:55 81.7 °F /  27.6 °C 61.9 °F /  16.6 °C 29.80in /  1009hPa West 2.9mph /  4.7km/h 6.0mph /  9.7km/h 51% 0.00in /  0mm 1106.0 W/m2
12:01 82.2 °F /  27.9 °C 62.2 °F /  16.8 °C 29.80in /  1009hPa Calm   6.0mph /  9.7km/h 51% 0.00in /  0mm 1220.0 W/m2
12:08 82.0 °F /  27.8 °C 61.5 °F /  16.4 °C 29.79in /  1008.7hPa NNE 0.9mph /  1.4km/h 2.0mph /  3.2km/h 50% 0.00in /  0mm 819.0 W/m2
12:14 81.7 °F /  27.6 °C 61.9 °F /  16.6 °C 29.79in /  1008.7hPa WSW 2.0mph /  3.2km/h 4.0mph /  6.4km/h 51% 0.00in /  0mm 682.0 W/m2
12:20 81.7 °F /  27.6 °C 61.9 °F /  16.6 °C 29.79in /  1008.7hPa NNW 0.9mph /  1.4km/h 2.0mph /  3.2km/h 51% 0.00in /  0mm 661.0 W/m2
12:26 81.3 °F /  27.4 °C 61.0 °F /  16.1 °C 29.79in /  1008.7hPa Calm   4.0mph /  6.4km/h 50% 0.00in /  0mm 1141.0 W/m2
12:32 81.0 °F /  27.2 °C 61.2 °F /  16.2 °C 29.78in /  1008.4hPa Calm   4.0mph /  6.4km/h 51% 0.00in /  0mm 663.0 W/m2
12:38 81.1 °F /  27.3 °C 60.8 °F /  16 °C 29.78in /  1008.4hPa NNE 0.9mph /  1.4km/h 3.0mph /  4.8km/h 50% 0.00in /  0mm 301.0 W/m2
12:44 81.0 °F /  27.2 °C 62.2 °F /  16.8 °C 29.78in /  1008.4hPa South 4.0mph /  6.4km/h 8.0mph /  12.9km/h 53% 0.00in /  0mm 202.0 W/m2
12:50 79.3 °F /  26.3 °C 62.2 °F /  16.8 °C 29.79in /  1008.7hPa ESE 4.0mph /  6.4km/h 12.0mph /  19.3km/h 56% 0.00in /  0mm 192.0 W/m2
12:56 77.4 °F /  25.2 °C 61.3 °F /  16.3 °C 29.78in /  1008.4hPa South 8.9mph /  14.3km/h 9.0mph /  14.5km/h 58% 0.00in /  0mm 169.0 W/m2
13:02 76.3 °F /  24.6 °C 60.4 °F /  15.8 °C 29.78in /  1008.4hPa SSE 2.9mph /  4.7km/h 8.0mph /  12.9km/h 58% 0.00in /  0mm 204.0 W/m2
13:08 75.6 °F /  24.2 °C 61.2 °F /  16.2 °C 29.78in /  1008.4hPa SSE 6.0mph /  9.7km/h 12.0mph /  19.3km/h 61% 0.00in /  0mm 241.0 W/m2
13:14 74.8 °F /  23.8 °C 62.2 °F /  16.8 °C 29.78in /  1008.4hPa SE 6.0mph /  9.7km/h 9.0mph /  14.5km/h 65% 0.00in /  0mm 274.0 W/m2
13:20 74.1 °F /  23.4 °C 61.2 °F /  16.2 °C 29.78in /  1008.4hPa SE 4.9mph /  7.9km/h 7.0mph /  11.3km/h 64% 0.00in /  0mm 325.0 W/m2
13:26 74.1 °F /  23.4 °C 61.2 °F /  16.2 °C 29.78in /  1008.4hPa SSE 4.0mph /  6.4km/h 8.0mph /  12.9km/h 64% 0.00in /  0mm 376.0 W/m2
13:32 74.5 °F /  23.6 °C 61.5 °F /  16.4 °C 29.77in /  1008hPa SSE 6.0mph /  9.7km/h 8.0mph /  12.9km/h 64% 0.00in /  0mm 476.0 W/m2
13:39 74.7 °F /  23.7 °C 62.1 °F /  16.7 °C 29.78in /  1008.4hPa SE 2.0mph /  3.2km/h 5.0mph /  8km/h 65% 0.00in /  0mm 439.0 W/m2
13:45 75.4 °F /  24.1 °C 61.0 °F /  16.1 °C 29.77in /  1008hPa ESE 4.0mph /  6.4km/h 5.0mph /  8km/h 61% 0.00in /  0mm 503.0 W/m2
13:51 76.3 °F /  24.6 °C 61.0 °F /  16.1 °C 29.77in /  1008hPa SE 0.9mph /  1.4km/h 7.0mph /  11.3km/h 59% 0.00in /  0mm 462.0 W/m2
13:57 76.6 °F /  24.8 °C 61.2 °F /  16.2 °C 29.76in /  1007.7hPa Calm   5.0mph /  8km/h 59% 0.00in /  0mm 647.0 W/m2
14:03 77.5 °F /  25.3 °C 63.0 °F /  17.2 °C 29.76in /  1007.7hPa North 6.0mph /  9.7km/h 7.0mph /  11.3km/h 61% 0.00in /  0mm 1032.0 W/m2
14:09 78.3 °F /  25.7 °C 63.3 °F /  17.4 °C 29.75in /  1007.3hPa ENE 2.9mph /  4.7km/h 6.0mph /  9.7km/h 60% 0.00in /  0mm 1157.0 W/m2
14:15 79.2 °F /  26.2 °C 62.6 °F /  17 °C 29.75in /  1007.3hPa NE 2.9mph /  4.7km/h 5.0mph /  8km/h 57% 0.00in /  0mm 1072.0 W/m2
14:21 80.1 °F /  26.7 °C 61.3 °F /  16.3 °C 29.75in /  1007.3hPa Calm   5.0mph /  8km/h 53% 0.00in /  0mm 1090.0 W/m2
14:27 81.3 °F /  27.4 °C 63.7 °F /  17.6 °C 29.74in /  1007hPa NE 2.0mph /  3.2km/h 6.0mph /  9.7km/h 55% 0.00in /  0mm 1092.0 W/m2
14:31 82.0 °F /  27.8 °C 63.1 °F /  17.3 °C 29.74in /  1007hPa NE 2.9mph /  4.7km/h 6.0mph /  9.7km/h 53% 0.00in /  0mm 1118.0 W/m2
14:37 82.8 °F /  28.2 °C 63.9 °F /  17.7 °C 29.74in /  1007hPa SE 0.9mph /  1.4km/h 9.0mph /  14.5km/h 53% 0.00in /  0mm 1058.0 W/m2
14:43 83.1 °F /  28.4 °C 60.8 °F /  16 °C 29.73in /  1006.7hPa SE 0.9mph /  1.4km/h 4.0mph /  6.4km/h 47% 0.00in /  0mm 1051.0 W/m2
14:49 83.7 °F /  28.7 °C 61.9 °F /  16.6 °C 29.73in /  1006.7hPa NE 2.0mph /  3.2km/h 4.0mph /  6.4km/h 48% 0.00in /  0mm 1027.0 W/m2
14:56 84.0 °F /  28.9 °C 59.7 °F /  15.4 °C 29.73in /  1006.7hPa NW 0.9mph /  1.4km/h 2.0mph /  3.2km/h 44% 0.00in /  0mm 1086.0 W/m2
15:02 84.9 °F /  29.4 °C 60.6 °F /  15.9 °C 29.73in /  1006.7hPa SE 2.9mph /  4.7km/h 3.0mph /  4.8km/h 44% 0.00in /  0mm 1102.0 W/m2
15:08 84.7 °F /  29.3 °C 59.2 °F /  15.1 °C 29.72in /  1006.3hPa SW 2.9mph /  4.7km/h 4.0mph /  6.4km/h 42% 0.00in /  0mm 1041.0 W/m2
15:14 84.4 °F /  29.1 °C 59.4 °F /  15.2 °C 29.72in /  1006.3hPa Calm   3.0mph /  4.8km/h 43% 0.00in /  0mm 299.0 W/m2
15:20 84.0 °F /  28.9 °C 62.2 °F /  16.8 °C 29.72in /  1006.3hPa South 6.9mph /  11.1km/h 12.0mph /  19.3km/h 48% 0.00in /  0mm 297.0 W/m2
15:26 82.2 °F /  27.9 °C 61.7 °F /  16.5 °C 29.72in /  1006.3hPa SSE 8.1mph /  13km/h 12.0mph /  19.3km/h 50% 0.00in /  0mm 309.0 W/m2
15:32 81.1 °F /  27.3 °C 61.3 °F /  16.3 °C 29.72in /  1006.3hPa SE 8.1mph /  13km/h 10.0mph /  16.1km/h 51% 0.00in /  0mm 401.0 W/m2
15:38 80.8 °F /  27.1 °C 62.1 °F /  16.7 °C 29.71in /  1006hPa SSE 4.0mph /  6.4km/h 8.0mph /  12.9km/h 53% 0.00in /  0mm 501.0 W/m2
15:45 81.0 °F /  27.2 °C 61.2 °F /  16.2 °C 29.71in /  1006hPa SE 6.0mph /  9.7km/h 8.0mph /  12.9km/h 51% 0.00in /  0mm 330.0 W/m2
15:51 80.6 °F /  27 °C 61.3 °F /  16.3 °C 29.71in /  1006hPa SE 4.0mph /  6.4km/h 8.0mph /  12.9km/h 52% 0.00in /  0mm 276.0 W/m2
15:57 80.4 °F /  26.9 °C 61.2 °F /  16.2 °C 29.71in /  1006hPa SSE 0.9mph /  1.4km/h 4.0mph /  6.4km/h 52% 0.00in /  0mm 272.0 W/m2
16:03 80.1 °F /  26.7 °C 61.9 °F /  16.6 °C 29.70in /  1005.6hPa Calm   4.0mph /  6.4km/h 54% 0.00in /  0mm 309.0 W/m2
16:09 79.7 °F /  26.5 °C 62.1 °F /  16.7 °C 29.70in /  1005.6hPa SSE 2.0mph /  3.2km/h 6.0mph /  9.7km/h 55% 0.00in /  0mm 371.0 W/m2
16:15 79.3 °F /  26.3 °C 63.3 °F /  17.4 °C 29.70in /  1005.6hPa SSE 2.0mph /  3.2km/h 5.0mph /  8km/h 58% 0.00in /  0mm 527.0 W/m2
16:21 79.9 °F /  26.6 °C 61.7 °F /  16.5 °C 29.70in /  1005.6hPa SE 2.9mph /  4.7km/h 8.0mph /  12.9km/h 54% 0.00in /  0mm 939.0 W/m2
16:27 80.8 °F /  27.1 °C 61.0 °F /  16.1 °C 29.70in /  1005.6hPa South 0.9mph /  1.4km/h 6.0mph /  9.7km/h 51% 0.00in /  0mm 295.0 W/m2
16:33 80.4 °F /  26.9 °C 60.6 °F /  15.9 °C 29.70in /  1005.6hPa Calm   5.0mph /  8km/h 51% 0.00in /  0mm 230.0 W/m2
16:40 80.1 °F /  26.7 °C 60.8 °F /  16 °C 29.69in /  1005.3hPa SE 2.9mph /  4.7km/h 5.0mph /  8km/h 52% 0.00in /  0mm 237.0 W/m2
16:46 79.9 °F /  26.6 °C 60.1 °F /  15.6 °C 29.69in /  1005.3hPa SE 6.0mph /  9.7km/h 6.0mph /  9.7km/h 51% 0.00in /  0mm 229.0 W/m2
16:52 79.5 °F /  26.4 °C 59.7 °F /  15.4 °C 29.69in /  1005.3hPa Calm   6.0mph /  9.7km/h 51% 0.00in /  0mm 209.0 W/m2
16:58 79.5 °F /  26.4 °C 59.7 °F /  15.4 °C 29.69in /  1005.3hPa East 2.0mph /  3.2km/h 3.0mph /  4.8km/h 51% 0.00in /  0mm 192.0 W/m2
17:04 79.5 °F /  26.4 °C 60.8 °F /  16 °C 29.69in /  1005.3hPa Calm   2.0mph /  3.2km/h 53% 0.00in /  0mm 176.0 W/m2
17:10 79.5 °F /  26.4 °C 60.8 °F /  16 °C 29.68in /  1005hPa ESE 2.0mph /  3.2km/h 3.0mph /  4.8km/h 53% 0.00in /  0mm 169.0 W/m2
17:16 79.5 °F /  26.4 °C 60.8 °F /  16 °C 29.68in /  1005hPa SE 0.9mph /  1.4km/h 3.0mph /  4.8km/h 53% 0.00in /  0mm 151.0 W/m2
17:23 79.2 °F /  26.2 °C 61.2 °F /  16.2 °C 29.68in /  1005hPa East 0.9mph /  1.4km/h 3.0mph /  4.8km/h 54% 0.00in /  0mm 139.0 W/m2
17:29 79.2 °F /  26.2 °C 61.2 °F /  16.2 °C 29.68in /  1005hPa Calm   1.0mph /  1.6km/h 54% 0.00in /  0mm 128.0 W/m2
17:35 79.0 °F /  26.1 °C 61.0 °F /  16.1 °C 29.69in /  1005.3hPa Calm   1.0mph /  1.6km/h 54% 0.00in /  0mm 113.0 W/m2
17:41 78.8 °F /  26 °C 60.3 °F /  15.7 °C 29.69in /  1005.3hPa Calm   2.0mph /  3.2km/h 53% 0.00in /  0mm 98.0 W/m2
17:47 78.6 °F /  25.9 °C 60.1 °F /  15.6 °C 29.69in /  1005.3hPa NNE 0.9mph /  1.4km/h 1.0mph /  1.6km/h 53% 0.00in /  0mm 90.0 W/m2
17:53 78.6 °F /  25.9 °C 61.2 °F /  16.2 °C 29.69in /  1005.3hPa Calm   1.0mph /  1.6km/h 55% 0.00in /  0mm 79.0 W/m2
17:59 78.4 °F /  25.8 °C 59.9 °F /  15.5 °C 29.70in /  1005.6hPa Calm   2.0mph /  3.2km/h 53% 0.00in /  0mm 69.0 W/m2
18:05 78.4 °F /  25.8 °C 60.4 °F /  15.8 °C 29.70in /  1005.6hPa Calm   1.0mph /  1.6km/h 54% 0.00in /  0mm 62.0 W/m2
18:12 78.3 °F /  25.7 °C 60.8 °F /  16 °C 29.69in /  1005.3hPa NNW 2.0mph /  3.2km/h 2.0mph /  3.2km/h 55% 0.00in /  0mm 62.0 W/m2
18:18 78.1 °F /  25.6 °C 63.1 °F /  17.3 °C 29.69in /  1005.3hPa Calm   1.0mph /  1.6km/h 60% 0.00in /  0mm 69.0 W/m2
18:24 77.7 °F /  25.4 °C 64.0 °F /  17.8 °C 29.70in /  1005.6hPa Calm   2.0mph /  3.2km/h 63% 0.00in /  0mm 62.0 W/m2
18:30 77.2 °F /  25.1 °C 63.1 °F /  17.3 °C 29.70in /  1005.6hPa Calm   1.0mph /  1.6km/h 62% 0.00in /  0mm 56.0 W/m2
18:36 76.6 °F /  24.8 °C 62.6 °F /  17 °C 29.70in /  1005.6hPa NW 2.0mph /  3.2km/h 4.0mph /  6.4km/h 62% 0.00in /  0mm 49.0 W/m2
18:42 76.3 °F /  24.6 °C 62.8 °F /  17.1 °C 29.70in /  1005.6hPa WNW 0.9mph /  1.4km/h 2.0mph /  3.2km/h 63% 0.00in /  0mm 44.0 W/m2
18:48 75.9 °F /  24.4 °C 62.8 °F /  17.1 °C 29.70in /  1005.6hPa Calm   1.0mph /  1.6km/h 64% 0.00in /  0mm 40.0 W/m2
18:52 75.7 °F /  24.3 °C 63.1 °F /  17.3 °C 29.70in /  1005.6hPa Calm   2.0mph /  3.2km/h 65% 0.00in /  0mm 39.0 W/m2
18:59 75.7 °F /  24.3 °C 63.1 °F /  17.3 °C 29.70in /  1005.6hPa Calm   1.0mph /  1.6km/h 65% 0.00in /  0mm 32.0 W/m2
19:05 75.6 °F /  24.2 °C 63.0 °F /  17.2 °C 29.70in /  1005.6hPa SW 0.9mph /  1.4km/h 2.0mph /  3.2km/h 65% 0.00in /  0mm 23.0 W/m2
19:11 75.4 °F /  24.1 °C 62.8 °F /  17.1 °C 29.70in /  1005.6hPa West 0.9mph /  1.4km/h 2.0mph /  3.2km/h 65% 0.00in /  0mm 16.0 W/m2
19:17 75.0 °F /  23.9 °C 62.4 °F /  16.9 °C 29.70in /  1005.6hPa Calm   3.0mph /  4.8km/h 65% 0.00in /  0mm 9.0 W/m2
19:23 74.8 °F /  23.8 °C 62.2 °F /  16.8 °C 29.71in /  1006hPa Calm   1.0mph /  1.6km/h 65% 0.00in /  0mm 5.0 W/m2
19:29 74.8 °F /  23.8 °C 62.2 °F /  16.8 °C 29.71in /  1006hPa Calm   1.0mph /  1.6km/h 65% 0.00in /  0mm 0.0 W/m2
19:35 74.8 °F /  23.8 °C 62.8 °F /  17.1 °C 29.71in /  1006hPa Calm   1.0mph /  1.6km/h 66% 0.00in /  0mm 0.0 W/m2
19:42 74.7 °F /  23.7 °C 63.0 °F /  17.2 °C 29.72in /  1006.3hPa Calm     67% 0.00in /  0mm 0.0 W/m2
19:48 74.5 °F /  23.6 °C 62.8 °F /  17.1 °C 29.72in /  1006.3hPa Calm     67% 0.00in /  0mm 0.0 W/m2
19:54 74.5 °F /  23.6 °C 62.8 °F /  17.1 °C 29.73in /  1006.7hPa Calm   2.0mph /  3.2km/h 67% 0.00in /  0mm 0.0 W/m2
20:00 74.1 °F /  23.4 °C 62.4 °F /  16.9 °C 29.73in /  1006.7hPa Calm     67% 0.00in /  0mm 0.0 W/m2
20:06 74.1 °F /  23.4 °C 62.4 °F /  16.9 °C 29.73in /  1006.7hPa Calm     67% 0.00in /  0mm 0.0 W/m2
20:12 73.9 °F /  23.3 °C 62.2 °F /  16.8 °C 29.74in /  1007hPa SSE 2.9mph /  4.7km/h 5.0mph /  8km/h 67% 0.00in /  0mm 0.0 W/m2
20:18 73.8 °F /  23.2 °C 61.3 °F /  16.3 °C 29.73in /  1006.7hPa SSW 0.9mph /  1.4km/h 6.0mph /  9.7km/h 65% 0.00in /  0mm 0.0 W/m2
20:25 73.6 °F /  23.1 °C 61.2 °F /  16.2 °C 29.73in /  1006.7hPa SSE 2.9mph /  4.7km/h 6.0mph /  9.7km/h 65% 0.00in /  0mm 0.0 W/m2
20:31 73.2 °F /  22.9 °C 61.2 °F /  16.2 °C 29.74in /  1007hPa Calm   4.0mph /  6.4km/h 66% 0.00in /  0mm 0.0 W/m2
20:37 73.0 °F /  22.8 °C 61.0 °F /  16.1 °C 29.74in /  1007hPa SSE 0.9mph /  1.4km/h 3.0mph /  4.8km/h 66% 0.00in /  0mm 0.0 W/m2
20:43 72.7 °F /  22.6 °C 61.2 °F /  16.2 °C 29.74in /  1007hPa Calm     67% 0.00in /  0mm 0.0 W/m2
20:50 72.7 °F /  22.6 °C 61.2 °F /  16.2 °C 29.75in /  1007.3hPa Calm   2.0mph /  3.2km/h 67% 0.00in /  0mm 0.0 W/m2
20:55 72.3 °F /  22.4 °C 61.2 °F /  16.2 °C 29.74in /  1007hPa Calm     68% 0.00in /  0mm 0.0 W/m2
21:01 72.3 °F /  22.4 °C 61.2 °F /  16.2 °C 29.74in /  1007hPa Calm   1.0mph /  1.6km/h 68% 0.00in /  0mm 0.0 W/m2
21:08 72.3 °F /  22.4 °C 61.2 °F /  16.2 °C 29.74in /  1007hPa Calm     68% 0.00in /  0mm 0.0 W/m2
21:14 72.3 °F /  22.4 °C 61.2 °F /  16.2 °C 29.75in /  1007.3hPa SE 0.9mph /  1.4km/h 1.0mph /  1.6km/h 68% 0.00in /  0mm 0.0 W/m2
21:20 72.1 °F /  22.3 °C 61.3 °F /  16.3 °C 29.75in /  1007.3hPa Calm     69% 0.00in /  0mm 0.0 W/m2
21:26 72.1 °F /  22.3 °C 61.3 °F /  16.3 °C 29.75in /  1007.3hPa Calm     69% 0.00in /  0mm 0.0 W/m2
21:32 72.1 °F /  22.3 °C 61.9 °F /  16.6 °C 29.75in /  1007.3hPa Calm     70% 0.00in /  0mm 0.0 W/m2
21:38 72.1 °F /  22.3 °C 62.2 °F /  16.8 °C 29.75in /  1007.3hPa Calm   1.0mph /  1.6km/h 71% 0.00in /  0mm 0.0 W/m2
21:45 72.1 °F /  22.3 °C 62.2 °F /  16.8 °C 29.75in /  1007.3hPa Calm   3.0mph /  4.8km/h 71% 0.00in /  0mm 0.0 W/m2
21:51 72.0 °F /  22.2 °C 62.1 °F /  16.7 °C 29.75in /  1007.3hPa Calm   1.0mph /  1.6km/h 71% 0.00in /  0mm 0.0 W/m2
21:57 72.0 °F /  22.2 °C 62.4 °F /  16.9 °C 29.76in /  1007.7hPa Calm   1.0mph /  1.6km/h 72% 0.00in /  0mm 0.0 W/m2
22:03 71.8 °F /  22.1 °C 62.2 °F /  16.8 °C 29.76in /  1007.7hPa NNW 0.9mph /  1.4km/h 3.0mph /  4.8km/h 72% 0.00in /  0mm 0.0 W/m2
22:09 71.4 °F /  21.9 °C 61.9 °F /  16.6 °C 29.76in /  1007.7hPa NNW 0.9mph /  1.4km/h 1.0mph /  1.6km/h 72% 0.00in /  0mm 0.0 W/m2
22:15 71.2 °F /  21.8 °C 62.1 °F /  16.7 °C 29.76in /  1007.7hPa NNE 2.0mph /  3.2km/h 5.0mph /  8km/h 73% 0.00in /  0mm 0.0 W/m2
22:21 70.9 °F /  21.6 °C 63.0 °F /  17.2 °C 29.77in /  1008hPa NNW 4.9mph /  7.9km/h 9.0mph /  14.5km/h 76% 0.00in /  0mm 0.0 W/m2
22:27 70.2 °F /  21.2 °C 62.2 °F /  16.8 °C 29.78in /  1008.4hPa North 6.9mph /  11.1km/h 13.0mph /  20.9km/h 76% 0.00in /  0mm 0.0 W/m2
22:33 69.4 °F /  20.8 °C 62.2 °F /  16.8 °C 29.78in /  1008.4hPa ENE 6.0mph /  9.7km/h 11.0mph /  17.7km/h 78% 0.00in /  0mm 0.0 W/m2
22:40 68.5 °F /  20.3 °C 61.7 °F /  16.5 °C 29.78in /  1008.4hPa NW 6.0mph /  9.7km/h 8.0mph /  12.9km/h 79% 0.00in /  0mm 0.0 W/m2
22:46 67.8 °F /  19.9 °C 61.0 °F /  16.1 °C 29.78in /  1008.4hPa North 4.9mph /  7.9km/h 11.0mph /  17.7km/h 79% 0.00in /  0mm 0.0 W/m2
22:52 67.5 °F /  19.7 °C 61.3 °F /  16.3 °C 29.78in /  1008.4hPa NNE 2.9mph /  4.7km/h 7.0mph /  11.3km/h 81% 0.00in /  0mm 0.0 W/m2
22:58 67.3 °F /  19.6 °C 61.5 °F /  16.4 °C 29.78in /  1008.4hPa Calm   4.0mph /  6.4km/h 82% 0.00in /  0mm 0.0 W/m2
23:04 66.9 °F /  19.4 °C 61.2 °F /  16.2 °C 29.78in /  1008.4hPa Calm   6.0mph /  9.7km/h 82% 0.00in /  0mm 0.0 W/m2
23:10 66.7 °F /  19.3 °C 61.3 °F /  16.3 °C 29.78in /  1008.4hPa NNE 2.9mph /  4.7km/h 3.0mph /  4.8km/h 83% 0.00in /  0mm 0.0 W/m2
23:16 66.7 °F /  19.3 °C 61.3 °F /  16.3 °C 29.79in /  1008.7hPa Calm   1.0mph /  1.6km/h 83% 0.00in /  0mm 0.0 W/m2
23:22 66.6 °F /  19.2 °C 61.5 °F /  16.4 °C 29.79in /  1008.7hPa Calm   2.0mph /  3.2km/h 84% 0.00in /  0mm 0.0 W/m2
23:28 66.6 °F /  19.2 °C 61.5 °F /  16.4 °C 29.79in /  1008.7hPa North 2.9mph /  4.7km/h 5.0mph /  8km/h 84% 0.00in /  0mm 0.0 W/m2
23:34 66.6 °F /  19.2 °C 61.5 °F /  16.4 °C 29.79in /  1008.7hPa NNW 4.0mph /  6.4km/h 7.0mph /  11.3km/h 84% 0.00in /  0mm 0.0 W/m2
23:40 66.4 °F /  19.1 °C 61.3 °F /  16.3 °C 29.80in /  1009hPa NNW 2.9mph /  4.7km/h 5.0mph /  8km/h 84% 0.00in /  0mm 0.0 W/m2
23:46 66.0 °F /  18.9 °C 61.3 °F /  16.3 °C 29.80in /  1009hPa North 2.9mph /  4.7km/h 5.0mph /  8km/h 85% 0.00in /  0mm 0.0 W/m2
23:52 65.8 °F /  18.8 °C 61.5 °F /  16.4 °C 29.80in /  1009hPa Calm   6.0mph /  9.7km/h 86% 0.00in /  0mm 0.0 W/m2
23:59 65.8 °F /  18.8 °C 61.2 °F /  16.2 °C 29.80in /  1009hPa Calm   5.0mph /  8km/h 85% 0.00in /  0mm 0.0 W/m2
Olympia, Windhoek, Namibia
Compliments of Weather Underground - 3 mb